sensor_id;sensor_type;location;lat;lon;timestamp;P1;durP1;ratioP1;P2;durP2;ratioP2
71475;SDS011;59286;59.274;17.974;2023-12-28T00:01:28;3.65;;;2.13;;
71475;SDS011;59286;59.274;17.974;2023-12-28T00:03:54;5.15;;;2.03;;
71475;SDS011;59286;59.274;17.974;2023-12-28T00:06:22;7.78;;;2.10;;
71475;SDS011;59286;59.274;17.974;2023-12-28T00:08:47;6.47;;;2.25;;
71475;SDS011;59286;59.274;17.974;2023-12-28T00:11:13;4.00;;;1.88;;
71475;SDS011;59286;59.274;17.974;2023-12-28T00:13:39;6.53;;;1.90;;
71475;SDS011;59286;59.274;17.974;2023-12-28T00:16:04;9.25;;;2.30;;
71475;SDS011;59286;59.274;17.974;2023-12-28T00:18:30;6.80;;;2.15;;
71475;SDS011;59286;59.274;17.974;2023-12-28T00:20:56;6.97;;;2.20;;
71475;SDS011;59286;59.274;17.974;2023-12-28T00:23:21;4.80;;;2.42;;
71475;SDS011;59286;59.274;17.974;2023-12-28T00:25:47;7.43;;;2.22;;
71475;SDS011;59286;59.274;17.974;2023-12-28T00:28:14;5.88;;;2.20;;
71475;SDS011;59286;59.274;17.974;2023-12-28T00:30:40;5.93;;;2.78;;
71475;SDS011;59286;59.274;17.974;2023-12-28T00:33:05;10.48;;;2.72;;
71475;SDS011;59286;59.274;17.974;2023-12-28T00:35:31;6.88;;;2.83;;
71475;SDS011;59286;59.274;17.974;2023-12-28T00:37:56;5.22;;;2.92;;
71475;SDS011;59286;59.274;17.974;2023-12-28T00:40:24;6.10;;;2.85;;
71475;SDS011;59286;59.274;17.974;2023-12-28T00:42:50;7.45;;;3.00;;
71475;SDS011;59286;59.274;17.974;2023-12-28T00:45:15;5.72;;;2.88;;
71475;SDS011;59286;59.274;17.974;2023-12-28T00:47:41;7.20;;;2.80;;
71475;SDS011;59286;59.274;17.974;2023-12-28T00:50:08;7.82;;;2.80;;
71475;SDS011;59286;59.274;17.974;2023-12-28T00:52:34;7.40;;;2.60;;
71475;SDS011;59286;59.274;17.974;2023-12-28T00:54:59;11.02;;;2.90;;
71475;SDS011;59286;59.274;17.974;2023-12-28T00:57:25;7.15;;;2.65;;
71475;SDS011;59286;59.274;17.974;2023-12-28T00:59:50;6.15;;;2.50;;
71475;SDS011;59286;59.274;17.974;2023-12-28T01:02:15;5.75;;;2.72;;
71475;SDS011;59286;59.274;17.974;2023-12-28T01:04:43;5.70;;;2.78;;
71475;SDS011;59286;59.274;17.974;2023-12-28T01:07:09;7.18;;;2.80;;
71475;SDS011;59286;59.274;17.974;2023-12-28T01:09:34;7.30;;;2.95;;
71475;SDS011;59286;59.274;17.974;2023-12-28T01:11:59;3.03;;;2.40;;
71475;SDS011;59286;59.274;17.974;2023-12-28T01:14:25;8.07;;;2.95;;
71475;SDS011;59286;59.274;17.974;2023-12-28T01:16:50;3.80;;;2.45;;
71475;SDS011;59286;59.274;17.974;2023-12-28T01:19:16;6.78;;;2.30;;
71475;SDS011;59286;59.274;17.974;2023-12-28T01:21:41;4.50;;;2.30;;
71475;SDS011;59286;59.274;17.974;2023-12-28T01:24:07;7.03;;;2.38;;
71475;SDS011;59286;59.274;17.974;2023-12-28T01:26:32;4.25;;;2.30;;
71475;SDS011;59286;59.274;17.974;2023-12-28T01:28:59;5.97;;;2.50;;
71475;SDS011;59286;59.274;17.974;2023-12-28T01:31:27;4.55;;;2.30;;
71475;SDS011;59286;59.274;17.974;2023-12-28T01:33:53;6.05;;;2.30;;
71475;SDS011;59286;59.274;17.974;2023-12-28T01:36:19;3.88;;;2.33;;
71475;SDS011;59286;59.274;17.974;2023-12-28T01:38:45;4.57;;;2.45;;
71475;SDS011;59286;59.274;17.974;2023-12-28T01:41:11;4.63;;;2.50;;
71475;SDS011;59286;59.274;17.974;2023-12-28T01:43:41;6.88;;;2.88;;
71475;SDS011;59286;59.274;17.974;2023-12-28T01:46:13;6.32;;;2.40;;
71475;SDS011;59286;59.274;17.974;2023-12-28T01:48:42;7.70;;;2.95;;
71475;SDS011;59286;59.274;17.974;2023-12-28T01:51:09;6.07;;;2.80;;
71475;SDS011;59286;59.274;17.974;2023-12-28T01:53:34;5.78;;;2.90;;
71475;SDS011;59286;59.274;17.974;2023-12-28T01:56:00;6.15;;;2.83;;
71475;SDS011;59286;59.274;17.974;2023-12-28T01:58:26;7.28;;;3.47;;
71475;SDS011;59286;59.274;17.974;2023-12-28T02:00:56;8.65;;;3.53;;
71475;SDS011;59286;59.274;17.974;2023-12-28T02:03:22;6.70;;;2.90;;
71475;SDS011;59286;59.274;17.974;2023-12-28T02:05:48;6.85;;;3.05;;
71475;SDS011;59286;59.274;17.974;2023-12-28T02:08:13;6.53;;;3.60;;
71475;SDS011;59286;59.274;17.974;2023-12-28T02:10:39;7.40;;;3.97;;
71475;SDS011;59286;59.274;17.974;2023-12-28T02:13:04;9.80;;;4.22;;
71475;SDS011;59286;59.274;17.974;2023-12-28T02:15:30;10.43;;;3.38;;
71475;SDS011;59286;59.274;17.974;2023-12-28T02:18:00;10.20;;;3.70;;
71475;SDS011;59286;59.274;17.974;2023-12-28T02:20:30;6.00;;;2.72;;
71475;SDS011;59286;59.274;17.974;2023-12-28T02:22:58;8.07;;;3.35;;
71475;SDS011;59286;59.274;17.974;2023-12-28T02:25:24;9.02;;;3.33;;
71475;SDS011;59286;59.274;17.974;2023-12-28T02:27:51;8.73;;;3.65;;
71475;SDS011;59286;59.274;17.974;2023-12-28T02:30:17;6.63;;;2.58;;
71475;SDS011;59286;59.274;17.974;2023-12-28T02:35:44;6.35;;;2.58;;
71475;SDS011;59286;59.274;17.974;2023-12-28T02:38:13;6.25;;;2.70;;
71475;SDS011;59286;59.274;17.974;2023-12-28T02:40:41;5.78;;;2.60;;
71475;SDS011;59286;59.274;17.974;2023-12-28T02:43:10;8.68;;;2.40;;
71475;SDS011;59286;59.274;17.974;2023-12-28T02:45:37;4.97;;;2.83;;
71475;SDS011;59286;59.274;17.974;2023-12-28T02:48:05;5.47;;;2.60;;
71475;SDS011;59286;59.274;17.974;2023-12-28T02:50:31;6.85;;;2.88;;
71475;SDS011;59286;59.274;17.974;2023-12-28T02:52:58;7.70;;;3.00;;
71475;SDS011;59286;59.274;17.974;2023-12-28T02:55:23;6.80;;;2.70;;
71475;SDS011;59286;59.274;17.974;2023-12-28T02:57:50;8.77;;;2.60;;
71475;SDS011;59286;59.274;17.974;2023-12-28T03:00:17;6.25;;;2.10;;
71475;SDS011;59286;59.274;17.974;2023-12-28T03:02:42;4.95;;;2.25;;
71475;SDS011;59286;59.274;17.974;2023-12-28T03:05:08;7.50;;;2.45;;
71475;SDS011;59286;59.274;17.974;2023-12-28T03:07:34;6.20;;;2.50;;
71475;SDS011;59286;59.274;17.974;2023-12-28T03:10:02;5.18;;;2.30;;
71475;SDS011;59286;59.274;17.974;2023-12-28T03:12:29;3.35;;;2.17;;
71475;SDS011;59286;59.274;17.974;2023-12-28T03:14:55;5.25;;;2.40;;
71475;SDS011;59286;59.274;17.974;2023-12-28T03:17:20;5.60;;;2.10;;
71475;SDS011;59286;59.274;17.974;2023-12-28T03:19:46;6.78;;;2.28;;
71475;SDS011;59286;59.274;17.974;2023-12-28T03:22:11;8.25;;;2.28;;
71475;SDS011;59286;59.274;17.974;2023-12-28T03:24:37;6.30;;;2.22;;
71475;SDS011;59286;59.274;17.974;2023-12-28T03:27:03;5.50;;;2.03;;
71475;SDS011;59286;59.274;17.974;2023-12-28T03:29:31;4.13;;;2.17;;
71475;SDS011;59286;59.274;17.974;2023-12-28T03:31:57;4.20;;;1.67;;
71475;SDS011;59286;59.274;17.974;2023-12-28T03:34:22;6.13;;;2.40;;
71475;SDS011;59286;59.274;17.974;2023-12-28T03:36:49;6.78;;;2.30;;
71475;SDS011;59286;59.274;17.974;2023-12-28T03:39:14;4.45;;;1.98;;
71475;SDS011;59286;59.274;17.974;2023-12-28T03:41:40;6.43;;;2.30;;
71475;SDS011;59286;59.274;17.974;2023-12-28T03:44:05;6.00;;;1.95;;
71475;SDS011;59286;59.274;17.974;2023-12-28T03:46:31;6.45;;;2.35;;
71475;SDS011;59286;59.274;17.974;2023-12-28T03:49:01;8.50;;;2.10;;
71475;SDS011;59286;59.274;17.974;2023-12-28T03:51:26;5.15;;;1.77;;
71475;SDS011;59286;59.274;17.974;2023-12-28T03:53:52;6.72;;;2.42;;
71475;SDS011;59286;59.274;17.974;2023-12-28T03:56:24;11.75;;;2.17;;
71475;SDS011;59286;59.274;17.974;2023-12-28T03:58:51;4.60;;;1.98;;
71475;SDS011;59286;59.274;17.974;2023-12-28T04:01:20;8.23;;;2.17;;
71475;SDS011;59286;59.274;17.974;2023-12-28T04:03:47;4.53;;;1.60;;
71475;SDS011;59286;59.274;17.974;2023-12-28T04:06:13;5.22;;;1.52;;
71475;SDS011;59286;59.274;17.974;2023-12-28T04:08:39;5.50;;;2.05;;
71475;SDS011;59286;59.274;17.974;2023-12-28T04:11:08;5.18;;;1.67;;
71475;SDS011;59286;59.274;17.974;2023-12-28T04:13:35;5.05;;;1.98;;
71475;SDS011;59286;59.274;17.974;2023-12-28T04:16:01;7.00;;;1.92;;
71475;SDS011;59286;59.274;17.974;2023-12-28T04:18:27;8.27;;;2.25;;
71475;SDS011;59286;59.274;17.974;2023-12-28T04:20:52;3.75;;;1.98;;
71475;SDS011;59286;59.274;17.974;2023-12-28T04:23:18;6.50;;;1.90;;
71475;SDS011;59286;59.274;17.974;2023-12-28T04:25:43;6.20;;;1.80;;
71475;SDS011;59286;59.274;17.974;2023-12-28T04:28:09;6.68;;;2.03;;
71475;SDS011;59286;59.274;17.974;2023-12-28T04:30:34;5.15;;;1.80;;
71475;SDS011;59286;59.274;17.974;2023-12-28T04:33:00;5.97;;;1.98;;
71475;SDS011;59286;59.274;17.974;2023-12-28T04:35:26;3.95;;;1.77;;
71475;SDS011;59286;59.274;17.974;2023-12-28T04:37:51;7.18;;;2.10;;
71475;SDS011;59286;59.274;17.974;2023-12-28T04:40:17;7.75;;;2.10;;
71475;SDS011;59286;59.274;17.974;2023-12-28T04:42:43;6.95;;;2.10;;
71475;SDS011;59286;59.274;17.974;2023-12-28T04:45:09;8.00;;;2.13;;
71475;SDS011;59286;59.274;17.974;2023-12-28T04:47:35;3.05;;;2.17;;
71475;SDS011;59286;59.274;17.974;2023-12-28T04:50:01;4.70;;;2.15;;
71475;SDS011;59286;59.274;17.974;2023-12-28T04:52:27;4.57;;;2.00;;
71475;SDS011;59286;59.274;17.974;2023-12-28T04:54:52;5.78;;;2.42;;
71475;SDS011;59286;59.274;17.974;2023-12-28T04:57:17;5.30;;;2.35;;
71475;SDS011;59286;59.274;17.974;2023-12-28T04:59:43;6.43;;;2.03;;
71475;SDS011;59286;59.274;17.974;2023-12-28T05:02:08;5.60;;;2.45;;
71475;SDS011;59286;59.274;17.974;2023-12-28T05:04:36;3.25;;;1.70;;
71475;SDS011;59286;59.274;17.974;2023-12-28T05:07:03;4.55;;;1.80;;
71475;SDS011;59286;59.274;17.974;2023-12-28T05:09:29;6.20;;;2.17;;
71475;SDS011;59286;59.274;17.974;2023-12-28T05:11:55;5.38;;;2.00;;
71475;SDS011;59286;59.274;17.974;2023-12-28T05:14:20;5.18;;;1.98;;
71475;SDS011;59286;59.274;17.974;2023-12-28T05:16:45;10.43;;;2.42;;
71475;SDS011;59286;59.274;17.974;2023-12-28T05:19:11;3.33;;;1.80;;
71475;SDS011;59286;59.274;17.974;2023-12-28T05:21:36;5.20;;;2.00;;
71475;SDS011;59286;59.274;17.974;2023-12-28T05:24:02;5.55;;;1.65;;
71475;SDS011;59286;59.274;17.974;2023-12-28T05:26:27;13.43;;;2.15;;
71475;SDS011;59286;59.274;17.974;2023-12-28T05:28:52;4.15;;;1.80;;
71475;SDS011;59286;59.274;17.974;2023-12-28T05:31:18;7.13;;;2.10;;
71475;SDS011;59286;59.274;17.974;2023-12-28T05:33:43;3.95;;;2.00;;
71475;SDS011;59286;59.274;17.974;2023-12-28T05:36:09;5.97;;;1.85;;
71475;SDS011;59286;59.274;17.974;2023-12-28T05:38:34;5.25;;;1.83;;
71475;SDS011;59286;59.274;17.974;2023-12-28T05:41:00;6.70;;;1.88;;
71475;SDS011;59286;59.274;17.974;2023-12-28T05:43:25;10.80;;;2.38;;
71475;SDS011;59286;59.274;17.974;2023-12-28T05:45:51;5.35;;;1.98;;
71475;SDS011;59286;59.274;17.974;2023-12-28T05:48:16;6.97;;;2.15;;
71475;SDS011;59286;59.274;17.974;2023-12-28T05:50:41;6.32;;;1.90;;
71475;SDS011;59286;59.274;17.974;2023-12-28T05:53:10;9.45;;;1.88;;
71475;SDS011;59286;59.274;17.974;2023-12-28T05:55:40;6.13;;;2.22;;
71475;SDS011;59286;59.274;17.974;2023-12-28T05:58:06;7.78;;;2.28;;
71475;SDS011;59286;59.274;17.974;2023-12-28T06:00:31;4.80;;;1.60;;
71475;SDS011;59286;59.274;17.974;2023-12-28T06:02:56;6.82;;;1.88;;
71475;SDS011;59286;59.274;17.974;2023-12-28T06:05:22;5.22;;;1.70;;
71475;SDS011;59286;59.274;17.974;2023-12-28T06:07:47;6.40;;;1.40;;
71475;SDS011;59286;59.274;17.974;2023-12-28T06:10:12;6.88;;;2.50;;
71475;SDS011;59286;59.274;17.974;2023-12-28T06:12:38;8.30;;;1.77;;
71475;SDS011;59286;59.274;17.974;2023-12-28T06:15:03;7.93;;;1.60;;
71475;SDS011;59286;59.274;17.974;2023-12-28T06:17:29;5.85;;;1.60;;
71475;SDS011;59286;59.274;17.974;2023-12-28T06:19:54;5.20;;;1.80;;
71475;SDS011;59286;59.274;17.974;2023-12-28T06:22:20;2.92;;;1.63;;
71475;SDS011;59286;59.274;17.974;2023-12-28T06:24:45;3.80;;;1.80;;
71475;SDS011;59286;59.274;17.974;2023-12-28T06:27:11;7.35;;;1.80;;
71475;SDS011;59286;59.274;17.974;2023-12-28T06:29:36;4.75;;;1.77;;
71475;SDS011;59286;59.274;17.974;2023-12-28T06:32:01;10.77;;;1.90;;
71475;SDS011;59286;59.274;17.974;2023-12-28T06:34:27;6.78;;;1.70;;
71475;SDS011;59286;59.274;17.974;2023-12-28T06:36:52;4.10;;;1.38;;
71475;SDS011;59286;59.274;17.974;2023-12-28T06:39:18;4.72;;;1.50;;
71475;SDS011;59286;59.274;17.974;2023-12-28T06:41:46;5.78;;;1.70;;
71475;SDS011;59286;59.274;17.974;2023-12-28T06:44:13;7.50;;;1.70;;
71475;SDS011;59286;59.274;17.974;2023-12-28T06:46:40;4.15;;;1.42;;
71475;SDS011;59286;59.274;17.974;2023-12-28T06:49:05;4.85;;;1.83;;
71475;SDS011;59286;59.274;17.974;2023-12-28T06:51:31;3.70;;;1.77;;
71475;SDS011;59286;59.274;17.974;2023-12-28T06:53:56;7.53;;;1.92;;
71475;SDS011;59286;59.274;17.974;2023-12-28T06:56:22;8.18;;;1.83;;
71475;SDS011;59286;59.274;17.974;2023-12-28T06:58:47;4.60;;;1.55;;
71475;SDS011;59286;59.274;17.974;2023-12-28T07:01:13;7.53;;;1.90;;
71475;SDS011;59286;59.274;17.974;2023-12-28T07:03:38;4.45;;;1.50;;
71475;SDS011;59286;59.274;17.974;2023-12-28T07:06:07;8.48;;;1.40;;
71475;SDS011;59286;59.274;17.974;2023-12-28T07:08:33;6.45;;;1.27;;
71475;SDS011;59286;59.274;17.974;2023-12-28T07:10:58;6.82;;;1.70;;
71475;SDS011;59286;59.274;17.974;2023-12-28T07:13:24;6.47;;;1.45;;
71475;SDS011;59286;59.274;17.974;2023-12-28T07:15:50;6.00;;;1.60;;
71475;SDS011;59286;59.274;17.974;2023-12-28T07:18:18;3.42;;;1.52;;
71475;SDS011;59286;59.274;17.974;2023-12-28T07:20:45;6.68;;;1.60;;
71475;SDS011;59286;59.274;17.974;2023-12-28T07:23:12;5.82;;;1.90;;
71475;SDS011;59286;59.274;17.974;2023-12-28T07:25:38;10.13;;;1.63;;
71475;SDS011;59286;59.274;17.974;2023-12-28T07:28:06;5.40;;;1.70;;
71475;SDS011;59286;59.274;17.974;2023-12-28T07:30:32;7.10;;;1.88;;
71475;SDS011;59286;59.274;17.974;2023-12-28T07:32:57;6.07;;;1.42;;
71475;SDS011;59286;59.274;17.974;2023-12-28T07:35:23;5.93;;;1.75;;
71475;SDS011;59286;59.274;17.974;2023-12-28T07:37:48;7.90;;;1.58;;
71475;SDS011;59286;59.274;17.974;2023-12-28T07:40:14;6.03;;;2.17;;
71475;SDS011;59286;59.274;17.974;2023-12-28T07:42:40;5.75;;;1.67;;
71475;SDS011;59286;59.274;17.974;2023-12-28T07:45:05;5.35;;;1.75;;
71475;SDS011;59286;59.274;17.974;2023-12-28T07:47:31;7.07;;;1.65;;
71475;SDS011;59286;59.274;17.974;2023-12-28T07:49:56;9.25;;;2.10;;
71475;SDS011;59286;59.274;17.974;2023-12-28T07:52:22;7.32;;;1.73;;
71475;SDS011;59286;59.274;17.974;2023-12-28T07:54:47;8.30;;;1.90;;
71475;SDS011;59286;59.274;17.974;2023-12-28T07:57:13;6.97;;;1.50;;
71475;SDS011;59286;59.274;17.974;2023-12-28T07:59:38;5.88;;;1.52;;
71475;SDS011;59286;59.274;17.974;2023-12-28T08:02:03;7.40;;;1.27;;
71475;SDS011;59286;59.274;17.974;2023-12-28T08:04:30;8.05;;;1.50;;
71475;SDS011;59286;59.274;17.974;2023-12-28T08:06:56;7.53;;;1.27;;
71475;SDS011;59286;59.274;17.974;2023-12-28T08:09:23;6.90;;;1.40;;
71475;SDS011;59286;59.274;17.974;2023-12-28T08:11:49;6.60;;;1.20;;
71475;SDS011;59286;59.274;17.974;2023-12-28T08:14:14;10.05;;;1.25;;
71475;SDS011;59286;59.274;17.974;2023-12-28T08:16:39;5.10;;;1.17;;
71475;SDS011;59286;59.274;17.974;2023-12-28T08:19:05;9.13;;;1.73;;
71475;SDS011;59286;59.274;17.974;2023-12-28T08:21:31;3.63;;;1.20;;
71475;SDS011;59286;59.274;17.974;2023-12-28T08:23:58;5.82;;;1.23;;
71475;SDS011;59286;59.274;17.974;2023-12-28T08:26:24;5.13;;;1.02;;
71475;SDS011;59286;59.274;17.974;2023-12-28T08:28:49;4.70;;;0.90;;
71475;SDS011;59286;59.274;17.974;2023-12-28T08:31:14;8.38;;;1.60;;
71475;SDS011;59286;59.274;17.974;2023-12-28T08:33:40;8.30;;;1.77;;
71475;SDS011;59286;59.274;17.974;2023-12-28T08:36:06;9.25;;;1.90;;
71475;SDS011;59286;59.274;17.974;2023-12-28T08:38:32;5.47;;;1.50;;
71475;SDS011;59286;59.274;17.974;2023-12-28T08:40:58;5.57;;;1.30;;
71475;SDS011;59286;59.274;17.974;2023-12-28T08:43:23;7.10;;;1.20;;
71475;SDS011;59286;59.274;17.974;2023-12-28T08:45:48;4.20;;;1.20;;
71475;SDS011;59286;59.274;17.974;2023-12-28T08:48:14;7.43;;;1.33;;
71475;SDS011;59286;59.274;17.974;2023-12-28T08:50:39;3.22;;;1.20;;
71475;SDS011;59286;59.274;17.974;2023-12-28T08:53:05;4.05;;;0.90;;
71475;SDS011;59286;59.274;17.974;2023-12-28T08:55:30;3.55;;;1.08;;
71475;SDS011;59286;59.274;17.974;2023-12-28T08:57:56;4.30;;;1.08;;
71475;SDS011;59286;59.274;17.974;2023-12-28T09:00:21;2.17;;;1.10;;
71475;SDS011;59286;59.274;17.974;2023-12-28T09:02:46;6.95;;;1.00;;
71475;SDS011;59286;59.274;17.974;2023-12-28T09:05:12;5.35;;;1.00;;
71475;SDS011;59286;59.274;17.974;2023-12-28T09:07:37;3.75;;;0.88;;
71475;SDS011;59286;59.274;17.974;2023-12-28T09:10:08;2.78;;;0.90;;
71475;SDS011;59286;59.274;17.974;2023-12-28T09:12:37;3.70;;;0.80;;
71475;SDS011;59286;59.274;17.974;2023-12-28T09:15:06;3.80;;;0.98;;
71475;SDS011;59286;59.274;17.974;2023-12-28T09:17:32;5.90;;;1.15;;
71475;SDS011;59286;59.274;17.974;2023-12-28T09:19:58;1.38;;;0.90;;
71475;SDS011;59286;59.274;17.974;2023-12-28T09:22:24;3.85;;;0.80;;
71475;SDS011;59286;59.274;17.974;2023-12-28T09:24:50;2.20;;;1.00;;
71475;SDS011;59286;59.274;17.974;2023-12-28T09:27:16;2.10;;;0.70;;
71475;SDS011;59286;59.274;17.974;2023-12-28T09:29:41;2.85;;;1.20;;
71475;SDS011;59286;59.274;17.974;2023-12-28T09:32:06;2.85;;;0.95;;
71475;SDS011;59286;59.274;17.974;2023-12-28T09:34:32;4.90;;;1.02;;
71475;SDS011;59286;59.274;17.974;2023-12-28T09:36:57;4.43;;;0.90;;
71475;SDS011;59286;59.274;17.974;2023-12-28T09:39:23;1.27;;;0.80;;
71475;SDS011;59286;59.274;17.974;2023-12-28T09:41:49;2.63;;;0.90;;
71475;SDS011;59286;59.274;17.974;2023-12-28T09:44:23;2.70;;;0.70;;
71475;SDS011;59286;59.274;17.974;2023-12-28T09:46:50;2.55;;;0.90;;
71475;SDS011;59286;59.274;17.974;2023-12-28T09:49:19;1.73;;;0.60;;
71475;SDS011;59286;59.274;17.974;2023-12-28T09:51:47;1.40;;;0.60;;
71475;SDS011;59286;59.274;17.974;2023-12-28T09:54:13;1.35;;;0.70;;
71475;SDS011;59286;59.274;17.974;2023-12-28T09:56:38;3.05;;;0.68;;
71475;SDS011;59286;59.274;17.974;2023-12-28T09:59:05;1.30;;;0.65;;
71475;SDS011;59286;59.274;17.974;2023-12-28T10:01:31;1.33;;;0.88;;
71475;SDS011;59286;59.274;17.974;2023-12-28T10:03:59;2.25;;;0.90;;
71475;SDS011;59286;59.274;17.974;2023-12-28T10:06:24;5.72;;;1.17;;
71475;SDS011;59286;59.274;17.974;2023-12-28T10:08:50;3.50;;;0.80;;
71475;SDS011;59286;59.274;17.974;2023-12-28T10:11:16;1.40;;;0.63;;
71475;SDS011;59286;59.274;17.974;2023-12-28T10:13:42;1.45;;;0.60;;
71475;SDS011;59286;59.274;17.974;2023-12-28T10:16:11;1.77;;;0.80;;
71475;SDS011;59286;59.274;17.974;2023-12-28T10:18:43;0.75;;;0.60;;
71475;SDS011;59286;59.274;17.974;2023-12-28T10:21:10;4.80;;;0.80;;
71475;SDS011;59286;59.274;17.974;2023-12-28T10:23:36;2.90;;;0.70;;
71475;SDS011;59286;59.274;17.974;2023-12-28T10:26:03;2.15;;;0.82;;
71475;SDS011;59286;59.274;17.974;2023-12-28T10:28:32;1.17;;;0.80;;
71475;SDS011;59286;59.274;17.974;2023-12-28T10:31:03;1.77;;;0.80;;
71475;SDS011;59286;59.274;17.974;2023-12-28T10:33:38;1.25;;;0.60;;
71475;SDS011;59286;59.274;17.974;2023-12-28T10:36:07;2.17;;;0.60;;
71475;SDS011;59286;59.274;17.974;2023-12-28T10:38:37;2.25;;;0.70;;
71475;SDS011;59286;59.274;17.974;2023-12-28T10:41:06;2.67;;;0.70;;
71475;SDS011;59286;59.274;17.974;2023-12-28T10:43:35;2.53;;;0.70;;
71475;SDS011;59286;59.274;17.974;2023-12-28T10:46:17;0.98;;;0.68;;
71475;SDS011;59286;59.274;17.974;2023-12-28T10:49:11;0.75;;;0.50;;
71475;SDS011;59286;59.274;17.974;2023-12-28T10:51:38;2.25;;;0.60;;
71475;SDS011;59286;59.274;17.974;2023-12-28T10:54:41;1.83;;;0.55;;
71475;SDS011;59286;59.274;17.974;2023-12-28T10:57:15;2.33;;;0.60;;
71475;SDS011;59286;59.274;17.974;2023-12-28T11:00:00;1.58;;;0.75;;
71475;SDS011;59286;59.274;17.974;2023-12-28T11:02:57;1.45;;;0.60;;
71475;SDS011;59286;59.274;17.974;2023-12-28T11:05:22;3.85;;;0.65;;
71475;SDS011;59286;59.274;17.974;2023-12-28T11:07:49;3.58;;;0.70;;
71475;SDS011;59286;59.274;17.974;2023-12-28T11:10:18;1.33;;;0.70;;
71475;SDS011;59286;59.274;17.974;2023-12-28T11:12:46;3.03;;;0.75;;
71475;SDS011;59286;59.274;17.974;2023-12-28T11:15:13;1.08;;;0.55;;
71475;SDS011;59286;59.274;17.974;2023-12-28T11:17:41;0.88;;;0.50;;
71475;SDS011;59286;59.274;17.974;2023-12-28T11:20:07;1.20;;;0.63;;
71475;SDS011;59286;59.274;17.974;2023-12-28T11:22:34;0.57;;;0.57;;
71475;SDS011;59286;59.274;17.974;2023-12-28T11:25:03;1.60;;;0.60;;
71475;SDS011;59286;59.274;17.974;2023-12-28T11:27:38;2.95;;;0.80;;
71475;SDS011;59286;59.274;17.974;2023-12-28T11:30:06;1.00;;;0.63;;
71475;SDS011;59286;59.274;17.974;2023-12-28T11:32:43;2.88;;;0.90;;
71475;SDS011;59286;59.274;17.974;2023-12-28T11:35:11;1.95;;;1.15;;
71475;SDS011;59286;59.274;17.974;2023-12-28T11:37:46;3.55;;;1.48;;
71475;SDS011;59286;59.274;17.974;2023-12-28T11:40:26;5.00;;;1.38;;
71475;SDS011;59286;59.274;17.974;2023-12-28T11:42:57;3.38;;;1.20;;
71475;SDS011;59286;59.274;17.974;2023-12-28T11:45:25;2.92;;;1.15;;
71475;SDS011;59286;59.274;17.974;2023-12-28T11:48:00;1.90;;;1.00;;
71475;SDS011;59286;59.274;17.974;2023-12-28T11:50:26;2.20;;;0.85;;
71475;SDS011;59286;59.274;17.974;2023-12-28T11:52:52;3.92;;;1.00;;
71475;SDS011;59286;59.274;17.974;2023-12-28T11:55:21;2.95;;;1.23;;
71475;SDS011;59286;59.274;17.974;2023-12-28T11:57:48;3.50;;;1.42;;
71475;SDS011;59286;59.274;17.974;2023-12-28T12:00:17;6.55;;;1.38;;
71475;SDS011;59286;59.274;17.974;2023-12-28T12:02:45;3.67;;;1.33;;
71475;SDS011;59286;59.274;17.974;2023-12-28T12:05:11;3.17;;;0.90;;
71475;SDS011;59286;59.274;17.974;2023-12-28T12:07:40;5.78;;;1.75;;
71475;SDS011;59286;59.274;17.974;2023-12-28T12:10:13;7.03;;;1.67;;
71475;SDS011;59286;59.274;17.974;2023-12-28T12:12:42;3.42;;;1.55;;
71475;SDS011;59286;59.274;17.974;2023-12-28T12:15:21;6.43;;;1.58;;
71475;SDS011;59286;59.274;17.974;2023-12-28T12:17:57;5.00;;;2.33;;
71475;SDS011;59286;59.274;17.974;2023-12-28T12:20:25;5.65;;;1.90;;
71475;SDS011;59286;59.274;17.974;2023-12-28T12:22:51;3.78;;;2.10;;
71475;SDS011;59286;59.274;17.974;2023-12-28T12:25:17;4.10;;;2.05;;
71475;SDS011;59286;59.274;17.974;2023-12-28T12:27:56;6.53;;;2.53;;
71475;SDS011;59286;59.274;17.974;2023-12-28T12:30:31;6.68;;;2.00;;
71475;SDS011;59286;59.274;17.974;2023-12-28T12:32:56;8.70;;;2.47;;
71475;SDS011;59286;59.274;17.974;2023-12-28T12:35:25;6.88;;;2.42;;
71475;SDS011;59286;59.274;17.974;2023-12-28T12:37:50;7.85;;;2.65;;
71475;SDS011;59286;59.274;17.974;2023-12-28T12:40:16;7.97;;;3.15;;
71475;SDS011;59286;59.274;17.974;2023-12-28T12:42:54;12.15;;;3.08;;
71475;SDS011;59286;59.274;17.974;2023-12-28T12:45:20;8.48;;;3.00;;
71475;SDS011;59286;59.274;17.974;2023-12-28T12:47:50;9.85;;;3.65;;
71475;SDS011;59286;59.274;17.974;2023-12-28T12:50:16;15.50;;;4.43;;
71475;SDS011;59286;59.274;17.974;2023-12-28T12:52:42;13.48;;;4.45;;
71475;SDS011;59286;59.274;17.974;2023-12-28T12:55:11;14.48;;;5.18;;
71475;SDS011;59286;59.274;17.974;2023-12-28T12:57:37;18.15;;;6.00;;
71475;SDS011;59286;59.274;17.974;2023-12-28T13:00:04;16.02;;;6.43;;
71475;SDS011;59286;59.274;17.974;2023-12-28T13:02:33;24.13;;;7.78;;
71475;SDS011;59286;59.274;17.974;2023-12-28T13:05:01;23.40;;;8.65;;
71475;SDS011;59286;59.274;17.974;2023-12-28T13:07:29;30.60;;;9.05;;
71475;SDS011;59286;59.274;17.974;2023-12-28T13:09:57;36.90;;;10.82;;
71475;SDS011;59286;59.274;17.974;2023-12-28T13:12:23;32.47;;;10.32;;
71475;SDS011;59286;59.274;17.974;2023-12-28T13:14:51;50.17;;;13.88;;
71475;SDS011;59286;59.274;17.974;2023-12-28T13:17:16;39.28;;;12.48;;
71475;SDS011;59286;59.274;17.974;2023-12-28T13:19:44;79.57;;;12.57;;
71475;SDS011;59286;59.274;17.974;2023-12-28T13:22:09;33.85;;;12.02;;
71475;SDS011;59286;59.274;17.974;2023-12-28T13:24:35;85.95;;;15.50;;
71475;SDS011;59286;59.274;17.974;2023-12-28T13:27:06;44.35;;;10.95;;
71475;SDS011;59286;59.274;17.974;2023-12-28T13:29:31;86.97;;;17.85;;
71475;SDS011;59286;59.274;17.974;2023-12-28T13:31:57;89.20;;;17.35;;
71475;SDS011;59286;59.274;17.974;2023-12-28T13:34:23;107.55;;;16.40;;
71475;SDS011;59286;59.274;17.974;2023-12-28T13:36:48;90.50;;;18.98;;
71475;SDS011;59286;59.274;17.974;2023-12-28T13:39:14;128.80;;;22.23;;
71475;SDS011;59286;59.274;17.974;2023-12-28T13:41:43;139.30;;;23.20;;
71475;SDS011;59286;59.274;17.974;2023-12-28T13:44:08;86.15;;;17.17;;
71475;SDS011;59286;59.274;17.974;2023-12-28T13:46:37;89.75;;;17.13;;
71475;SDS011;59286;59.274;17.974;2023-12-28T13:49:03;73.40;;;16.55;;
71475;SDS011;59286;59.274;17.974;2023-12-28T13:51:32;94.63;;;17.75;;
71475;SDS011;59286;59.274;17.974;2023-12-28T13:53:58;136.23;;;23.55;;
71475;SDS011;59286;59.274;17.974;2023-12-28T13:56:23;128.52;;;22.13;;
71475;SDS011;59286;59.274;17.974;2023-12-28T13:58:49;112.00;;;22.58;;
71475;SDS011;59286;59.274;17.974;2023-12-28T14:01:14;136.27;;;22.38;;
71475;SDS011;59286;59.274;17.974;2023-12-28T14:03:40;76.45;;;16.98;;
71475;SDS011;59286;59.274;17.974;2023-12-28T14:06:08;65.40;;;16.08;;
71475;SDS011;59286;59.274;17.974;2023-12-28T14:08:34;131.43;;;21.25;;
71475;SDS011;59286;59.274;17.974;2023-12-28T14:11:04;132.73;;;19.08;;
71475;SDS011;59286;59.274;17.974;2023-12-28T14:13:29;166.88;;;26.77;;
71475;SDS011;59286;59.274;17.974;2023-12-28T14:15:56;84.32;;;18.30;;
71475;SDS011;59286;59.274;17.974;2023-12-28T14:18:21;130.43;;;23.25;;
71475;SDS011;59286;59.274;17.974;2023-12-28T14:20:47;61.53;;;17.55;;
71475;SDS011;59286;59.274;17.974;2023-12-28T14:23:16;44.75;;;15.95;;
71475;SDS011;59286;59.274;17.974;2023-12-28T14:25:44;75.82;;;28.80;;
71475;SDS011;59286;59.274;17.974;2023-12-28T14:28:16;70.50;;;33.03;;
71475;SDS011;59286;59.274;17.974;2023-12-28T14:30:42;41.03;;;16.45;;
71475;SDS011;59286;59.274;17.974;2023-12-28T14:33:11;67.38;;;25.20;;